YCSI weather

Public forecast

Using degrees Celsius for public forecast. Weather courtesy of forecast.io.

Closest aviation weather report (METAR) to Cassilis Rotherw Airport

Closest report is Mudgee Airport, 38.0 nm (70.5 km) SSW. Retrieved 2020/08/15 12:30 UTC (8 minutes ago):

YMDG 151230Z AUTO 30008KT 9999 // OVC021 OVC027 11/09 Q1011

Closest aviation forecast (TAF) to Cassilis Rotherw Airport

Closest forecast is Tamworth Airport, 71.4 nm (132.2 km) NE. Retrieved 2020/08/15 12:48 UTC (0 seconds ago):

TAF YSTW 151144Z 1512/1606 29008KT 9999 -SHRA SCT010 SCT030 FM151500 30005KT 9999 NSW BKN020 BECMG 1522/1600 28013KT 9999 SCT035 TEMPO 1516/1522 9999 BKN010